sensor_id;sensor_type;location;lat;lon;timestamp;P1;durP1;ratioP1;P2;durP2;ratioP2
48524;SDS011;34316;51.514;-0.178;2022-11-24T00:01:32;16.70;;;5.55;;
48524;SDS011;34316;51.514;-0.178;2022-11-24T00:03:34;9.00;;;5.80;;
48524;SDS011;34316;51.514;-0.178;2022-11-24T00:05:36;10.85;;;5.07;;
48524;SDS011;34316;51.514;-0.178;2022-11-24T00:07:39;13.02;;;5.78;;
48524;SDS011;34316;51.514;-0.178;2022-11-24T00:09:40;7.65;;;4.82;;
48524;SDS011;34316;51.514;-0.178;2022-11-24T00:11:42;8.50;;;5.20;;
48524;SDS011;34316;51.514;-0.178;2022-11-24T00:13:44;9.05;;;5.30;;
48524;SDS011;34316;51.514;-0.178;2022-11-24T00:15:46;10.35;;;5.90;;
48524;SDS011;34316;51.514;-0.178;2022-11-24T00:17:48;8.52;;;5.53;;
48524;SDS011;34316;51.514;-0.178;2022-11-24T00:19:49;9.35;;;5.65;;
48524;SDS011;34316;51.514;-0.178;2022-11-24T00:21:51;9.93;;;5.65;;
48524;SDS011;34316;51.514;-0.178;2022-11-24T00:23:53;12.27;;;5.70;;
48524;SDS011;34316;51.514;-0.178;2022-11-24T00:25:54;10.02;;;5.65;;
48524;SDS011;34316;51.514;-0.178;2022-11-24T00:28:03;7.38;;;4.85;;
48524;SDS011;34316;51.514;-0.178;2022-11-24T00:30:05;9.60;;;5.55;;
48524;SDS011;34316;51.514;-0.178;2022-11-24T00:32:07;7.60;;;5.47;;
48524;SDS011;34316;51.514;-0.178;2022-11-24T00:34:10;10.80;;;5.50;;
48524;SDS011;34316;51.514;-0.178;2022-11-24T00:38:14;9.70;;;5.53;;
48524;SDS011;34316;51.514;-0.178;2022-11-24T00:40:16;10.82;;;5.93;;
48524;SDS011;34316;51.514;-0.178;2022-11-24T00:42:17;9.60;;;6.13;;
48524;SDS011;34316;51.514;-0.178;2022-11-24T00:44:19;9.13;;;5.80;;
48524;SDS011;34316;51.514;-0.178;2022-11-24T00:46:21;16.05;;;6.78;;
48524;SDS011;34316;51.514;-0.178;2022-11-24T00:48:23;11.07;;;6.22;;
48524;SDS011;34316;51.514;-0.178;2022-11-24T00:50:25;9.35;;;5.93;;
48524;SDS011;34316;51.514;-0.178;2022-11-24T00:52:27;9.82;;;5.40;;
48524;SDS011;34316;51.514;-0.178;2022-11-24T00:54:28;12.38;;;6.40;;
48524;SDS011;34316;51.514;-0.178;2022-11-24T00:56:31;8.88;;;6.10;;
48524;SDS011;34316;51.514;-0.178;2022-11-24T00:58:33;11.65;;;6.60;;
48524;SDS011;34316;51.514;-0.178;2022-11-24T01:00:35;10.23;;;6.43;;
48524;SDS011;34316;51.514;-0.178;2022-11-24T01:02:37;10.13;;;6.57;;
48524;SDS011;34316;51.514;-0.178;2022-11-24T01:04:38;9.52;;;6.70;;
48524;SDS011;34316;51.514;-0.178;2022-11-24T01:06:40;11.23;;;6.75;;
48524;SDS011;34316;51.514;-0.178;2022-11-24T01:08:42;11.45;;;6.32;;
48524;SDS011;34316;51.514;-0.178;2022-11-24T01:10:44;12.32;;;6.72;;
48524;SDS011;34316;51.514;-0.178;2022-11-24T01:12:46;10.07;;;5.88;;
48524;SDS011;34316;51.514;-0.178;2022-11-24T01:14:48;11.02;;;6.25;;
48524;SDS011;34316;51.514;-0.178;2022-11-24T01:16:49;9.98;;;6.32;;
48524;SDS011;34316;51.514;-0.178;2022-11-24T01:18:51;9.82;;;5.53;;
48524;SDS011;34316;51.514;-0.178;2022-11-24T01:20:53;11.20;;;6.18;;
48524;SDS011;34316;51.514;-0.178;2022-11-24T01:22:54;9.57;;;5.55;;
48524;SDS011;34316;51.514;-0.178;2022-11-24T01:24:56;9.70;;;4.95;;
48524;SDS011;34316;51.514;-0.178;2022-11-24T01:26:57;10.00;;;5.40;;
48524;SDS011;34316;51.514;-0.178;2022-11-24T01:28:59;10.25;;;4.90;;
48524;SDS011;34316;51.514;-0.178;2022-11-24T01:31:02;12.30;;;4.65;;
48524;SDS011;34316;51.514;-0.178;2022-11-24T01:33:05;7.38;;;5.10;;
48524;SDS011;34316;51.514;-0.178;2022-11-24T01:35:07;8.70;;;5.18;;
48524;SDS011;34316;51.514;-0.178;2022-11-24T01:37:09;7.13;;;5.07;;
48524;SDS011;34316;51.514;-0.178;2022-11-24T01:39:11;7.65;;;5.15;;
48524;SDS011;34316;51.514;-0.178;2022-11-24T01:41:15;9.38;;;5.35;;
48524;SDS011;34316;51.514;-0.178;2022-11-24T01:43:19;9.45;;;5.07;;
48524;SDS011;34316;51.514;-0.178;2022-11-24T01:45:26;12.55;;;5.20;;
48524;SDS011;34316;51.514;-0.178;2022-11-24T01:47:34;9.63;;;6.10;;
48524;SDS011;34316;51.514;-0.178;2022-11-24T01:49:40;11.57;;;6.68;;
48524;SDS011;34316;51.514;-0.178;2022-11-24T01:51:51;14.85;;;7.47;;
48524;SDS011;34316;51.514;-0.178;2022-11-24T01:53:56;14.80;;;7.93;;
48524;SDS011;34316;51.514;-0.178;2022-11-24T01:56:00;13.10;;;6.80;;
48524;SDS011;34316;51.514;-0.178;2022-11-24T02:00:14;11.43;;;5.78;;
48524;SDS011;34316;51.514;-0.178;2022-11-24T02:02:17;17.95;;;6.50;;
48524;SDS011;34316;51.514;-0.178;2022-11-24T02:04:21;11.55;;;5.88;;
48524;SDS011;34316;51.514;-0.178;2022-11-24T02:06:26;13.50;;;6.18;;
48524;SDS011;34316;51.514;-0.178;2022-11-24T02:10:50;10.27;;;6.30;;
48524;SDS011;34316;51.514;-0.178;2022-11-24T02:12:52;14.02;;;6.40;;
48524;SDS011;34316;51.514;-0.178;2022-11-24T02:14:55;15.93;;;6.50;;
48524;SDS011;34316;51.514;-0.178;2022-11-24T02:16:58;12.15;;;6.55;;
48524;SDS011;34316;51.514;-0.178;2022-11-24T02:18:59;11.57;;;6.25;;
48524;SDS011;34316;51.514;-0.178;2022-11-24T02:21:02;8.68;;;6.30;;
48524;SDS011;34316;51.514;-0.178;2022-11-24T02:23:09;9.13;;;5.95;;
48524;SDS011;34316;51.514;-0.178;2022-11-24T02:25:21;10.52;;;6.57;;
48524;SDS011;34316;51.514;-0.178;2022-11-24T02:27:27;10.73;;;5.97;;
48524;SDS011;34316;51.514;-0.178;2022-11-24T02:29:29;9.40;;;5.82;;
48524;SDS011;34316;51.514;-0.178;2022-11-24T02:31:47;12.23;;;6.57;;
48524;SDS011;34316;51.514;-0.178;2022-11-24T02:33:51;9.80;;;6.15;;
48524;SDS011;34316;51.514;-0.178;2022-11-24T02:35:53;10.02;;;5.75;;
48524;SDS011;34316;51.514;-0.178;2022-11-24T02:37:54;13.68;;;5.80;;
48524;SDS011;34316;51.514;-0.178;2022-11-24T02:39:56;11.18;;;5.75;;
48524;SDS011;34316;51.514;-0.178;2022-11-24T02:41:59;12.10;;;6.40;;
48524;SDS011;34316;51.514;-0.178;2022-11-24T02:44:04;11.93;;;6.30;;
48524;SDS011;34316;51.514;-0.178;2022-11-24T02:46:05;10.75;;;5.82;;
48524;SDS011;34316;51.514;-0.178;2022-11-24T02:48:08;12.57;;;6.15;;
48524;SDS011;34316;51.514;-0.178;2022-11-24T02:50:10;13.65;;;7.25;;
48524;SDS011;34316;51.514;-0.178;2022-11-24T02:52:11;12.52;;;8.40;;
48524;SDS011;34316;51.514;-0.178;2022-11-24T02:54:13;13.70;;;8.27;;
48524;SDS011;34316;51.514;-0.178;2022-11-24T02:56:15;15.30;;;8.38;;
48524;SDS011;34316;51.514;-0.178;2022-11-24T02:58:16;15.00;;;7.68;;
48524;SDS011;34316;51.514;-0.178;2022-11-24T03:00:18;12.75;;;7.63;;
48524;SDS011;34316;51.514;-0.178;2022-11-24T03:02:20;13.73;;;7.95;;
48524;SDS011;34316;51.514;-0.178;2022-11-24T03:04:21;16.55;;;7.75;;
48524;SDS011;34316;51.514;-0.178;2022-11-24T03:06:23;14.43;;;8.35;;
48524;SDS011;34316;51.514;-0.178;2022-11-24T03:08:24;13.88;;;8.38;;
48524;SDS011;34316;51.514;-0.178;2022-11-24T03:10:26;13.57;;;8.63;;
48524;SDS011;34316;51.514;-0.178;2022-11-24T03:12:28;12.68;;;8.63;;
48524;SDS011;34316;51.514;-0.178;2022-11-24T03:14:30;12.73;;;8.93;;
48524;SDS011;34316;51.514;-0.178;2022-11-24T03:16:32;13.00;;;7.97;;
48524;SDS011;34316;51.514;-0.178;2022-11-24T03:18:34;16.70;;;8.75;;
48524;SDS011;34316;51.514;-0.178;2022-11-24T03:20:35;11.00;;;7.82;;
48524;SDS011;34316;51.514;-0.178;2022-11-24T03:22:37;12.95;;;8.00;;
48524;SDS011;34316;51.514;-0.178;2022-11-24T03:24:38;13.60;;;8.98;;
48524;SDS011;34316;51.514;-0.178;2022-11-24T03:26:40;13.57;;;9.15;;
48524;SDS011;34316;51.514;-0.178;2022-11-24T03:28:42;18.95;;;10.55;;
48524;SDS011;34316;51.514;-0.178;2022-11-24T03:30:46;19.23;;;11.77;;
48524;SDS011;34316;51.514;-0.178;2022-11-24T03:32:50;22.00;;;12.75;;
48524;SDS011;34316;51.514;-0.178;2022-11-24T03:34:53;21.38;;;15.50;;
48524;SDS011;34316;51.514;-0.178;2022-11-24T03:36:55;25.30;;;15.85;;
48524;SDS011;34316;51.514;-0.178;2022-11-24T03:38:57;22.55;;;16.27;;
48524;SDS011;34316;51.514;-0.178;2022-11-24T03:40:58;27.35;;;17.42;;
48524;SDS011;34316;51.514;-0.178;2022-11-24T03:43:00;23.80;;;16.95;;
48524;SDS011;34316;51.514;-0.178;2022-11-24T03:45:02;28.40;;;18.30;;
48524;SDS011;34316;51.514;-0.178;2022-11-24T03:47:23;26.63;;;17.38;;
48524;SDS011;34316;51.514;-0.178;2022-11-24T03:49:25;27.55;;;18.92;;
48524;SDS011;34316;51.514;-0.178;2022-11-24T03:51:27;32.50;;;20.35;;
48524;SDS011;34316;51.514;-0.178;2022-11-24T03:53:29;31.70;;;18.08;;
48524;SDS011;34316;51.514;-0.178;2022-11-24T03:55:31;24.85;;;16.73;;
48524;SDS011;34316;51.514;-0.178;2022-11-24T03:57:33;27.63;;;16.63;;
48524;SDS011;34316;51.514;-0.178;2022-11-24T03:59:34;26.20;;;17.60;;
48524;SDS011;34316;51.514;-0.178;2022-11-24T04:01:36;27.30;;;17.67;;
48524;SDS011;34316;51.514;-0.178;2022-11-24T04:03:38;25.25;;;16.55;;
48524;SDS011;34316;51.514;-0.178;2022-11-24T04:05:39;27.30;;;16.67;;
48524;SDS011;34316;51.514;-0.178;2022-11-24T04:07:41;21.15;;;15.57;;
48524;SDS011;34316;51.514;-0.178;2022-11-24T04:09:43;27.13;;;16.60;;
48524;SDS011;34316;51.514;-0.178;2022-11-24T04:11:45;21.30;;;14.85;;
48524;SDS011;34316;51.514;-0.178;2022-11-24T04:14:05;24.45;;;15.00;;
48524;SDS011;34316;51.514;-0.178;2022-11-24T04:16:13;25.02;;;15.02;;
48524;SDS011;34316;51.514;-0.178;2022-11-24T04:18:15;23.42;;;14.52;;
48524;SDS011;34316;51.514;-0.178;2022-11-24T04:20:17;25.00;;;15.30;;
48524;SDS011;34316;51.514;-0.178;2022-11-24T04:22:18;28.25;;;14.55;;
48524;SDS011;34316;51.514;-0.178;2022-11-24T04:24:20;19.92;;;13.07;;
48524;SDS011;34316;51.514;-0.178;2022-11-24T04:26:22;27.77;;;15.52;;
48524;SDS011;34316;51.514;-0.178;2022-11-24T04:28:23;21.50;;;14.98;;
48524;SDS011;34316;51.514;-0.178;2022-11-24T04:30:27;22.98;;;15.00;;
48524;SDS011;34316;51.514;-0.178;2022-11-24T04:32:29;25.83;;;15.48;;
48524;SDS011;34316;51.514;-0.178;2022-11-24T04:34:31;25.88;;;14.73;;
48524;SDS011;34316;51.514;-0.178;2022-11-24T04:36:33;23.27;;;15.57;;
48524;SDS011;34316;51.514;-0.178;2022-11-24T04:38:34;23.45;;;15.00;;
48524;SDS011;34316;51.514;-0.178;2022-11-24T04:40:59;20.10;;;14.23;;
48524;SDS011;34316;51.514;-0.178;2022-11-24T04:43:03;21.27;;;12.88;;
48524;SDS011;34316;51.514;-0.178;2022-11-24T04:45:05;23.83;;;14.13;;
48524;SDS011;34316;51.514;-0.178;2022-11-24T04:47:10;20.23;;;13.38;;
48524;SDS011;34316;51.514;-0.178;2022-11-24T04:49:15;18.00;;;12.77;;
48524;SDS011;34316;51.514;-0.178;2022-11-24T04:51:17;19.83;;;13.18;;
48524;SDS011;34316;51.514;-0.178;2022-11-24T04:53:19;20.98;;;13.25;;
48524;SDS011;34316;51.514;-0.178;2022-11-24T04:55:21;20.20;;;13.07;;
48524;SDS011;34316;51.514;-0.178;2022-11-24T04:57:23;21.95;;;12.30;;
48524;SDS011;34316;51.514;-0.178;2022-11-24T04:59:26;21.67;;;12.70;;
48524;SDS011;34316;51.514;-0.178;2022-11-24T05:01:28;22.05;;;12.38;;
48524;SDS011;34316;51.514;-0.178;2022-11-24T05:03:29;17.30;;;12.00;;
48524;SDS011;34316;51.514;-0.178;2022-11-24T05:05:31;17.85;;;11.50;;
48524;SDS011;34316;51.514;-0.178;2022-11-24T05:07:33;17.17;;;11.10;;
48524;SDS011;34316;51.514;-0.178;2022-11-24T05:09:35;16.30;;;11.13;;
48524;SDS011;34316;51.514;-0.178;2022-11-24T05:12:00;14.75;;;9.15;;
48524;SDS011;34316;51.514;-0.178;2022-11-24T05:14:01;15.63;;;9.85;;
48524;SDS011;34316;51.514;-0.178;2022-11-24T05:16:03;14.75;;;10.57;;
48524;SDS011;34316;51.514;-0.178;2022-11-24T05:18:06;18.52;;;10.95;;
48524;SDS011;34316;51.514;-0.178;2022-11-24T05:20:09;18.55;;;11.73;;
48524;SDS011;34316;51.514;-0.178;2022-11-24T05:22:11;18.98;;;10.63;;
48524;SDS011;34316;51.514;-0.178;2022-11-24T05:24:12;19.60;;;11.23;;
48524;SDS011;34316;51.514;-0.178;2022-11-24T05:26:14;22.98;;;12.18;;
48524;SDS011;34316;51.514;-0.178;2022-11-24T05:28:16;25.13;;;13.18;;
48524;SDS011;34316;51.514;-0.178;2022-11-24T05:30:18;31.90;;;23.73;;
48524;SDS011;34316;51.514;-0.178;2022-11-24T05:32:20;31.20;;;23.33;;
48524;SDS011;34316;51.514;-0.178;2022-11-24T05:34:21;33.13;;;23.33;;
48524;SDS011;34316;51.514;-0.178;2022-11-24T05:36:23;29.67;;;18.50;;
48524;SDS011;34316;51.514;-0.178;2022-11-24T05:38:43;21.67;;;14.57;;
48524;SDS011;34316;51.514;-0.178;2022-11-24T05:40:44;22.67;;;15.57;;
48524;SDS011;34316;51.514;-0.178;2022-11-24T05:42:46;25.75;;;16.38;;
48524;SDS011;34316;51.514;-0.178;2022-11-24T05:44:48;24.13;;;15.57;;
48524;SDS011;34316;51.514;-0.178;2022-11-24T05:46:50;20.40;;;14.43;;
48524;SDS011;34316;51.514;-0.178;2022-11-24T05:48:52;19.45;;;14.05;;
48524;SDS011;34316;51.514;-0.178;2022-11-24T05:50:54;28.27;;;14.68;;
48524;SDS011;34316;51.514;-0.178;2022-11-24T05:53:00;20.20;;;13.95;;
48524;SDS011;34316;51.514;-0.178;2022-11-24T05:55:04;23.10;;;13.63;;
48524;SDS011;34316;51.514;-0.178;2022-11-24T05:57:08;22.08;;;13.70;;
48524;SDS011;34316;51.514;-0.178;2022-11-24T05:59:10;20.65;;;12.82;;
48524;SDS011;34316;51.514;-0.178;2022-11-24T06:01:12;22.10;;;12.15;;
48524;SDS011;34316;51.514;-0.178;2022-11-24T06:03:13;23.60;;;12.25;;
48524;SDS011;34316;51.514;-0.178;2022-11-24T06:05:15;22.38;;;12.18;;
48524;SDS011;34316;51.514;-0.178;2022-11-24T06:07:18;24.58;;;12.82;;
48524;SDS011;34316;51.514;-0.178;2022-11-24T06:09:19;19.40;;;13.52;;
48524;SDS011;34316;51.514;-0.178;2022-11-24T06:11:21;22.08;;;13.65;;
48524;SDS011;34316;51.514;-0.178;2022-11-24T06:13:23;25.67;;;14.25;;
48524;SDS011;34316;51.514;-0.178;2022-11-24T06:15:25;23.08;;;13.85;;
48524;SDS011;34316;51.514;-0.178;2022-11-24T06:17:26;27.67;;;13.80;;
48524;SDS011;34316;51.514;-0.178;2022-11-24T06:19:28;23.10;;;13.52;;
48524;SDS011;34316;51.514;-0.178;2022-11-24T06:21:30;20.83;;;13.85;;
48524;SDS011;34316;51.514;-0.178;2022-11-24T06:23:32;25.95;;;14.43;;
48524;SDS011;34316;51.514;-0.178;2022-11-24T06:25:34;24.58;;;14.35;;
48524;SDS011;34316;51.514;-0.178;2022-11-24T06:27:35;24.60;;;14.30;;
48524;SDS011;34316;51.514;-0.178;2022-11-24T06:29:37;22.67;;;14.05;;
48524;SDS011;34316;51.514;-0.178;2022-11-24T06:31:39;22.23;;;13.13;;
48524;SDS011;34316;51.514;-0.178;2022-11-24T06:33:41;25.13;;;14.77;;
48524;SDS011;34316;51.514;-0.178;2022-11-24T06:35:42;24.80;;;14.50;;
48524;SDS011;34316;51.514;-0.178;2022-11-24T06:37:44;21.75;;;14.05;;
48524;SDS011;34316;51.514;-0.178;2022-11-24T06:39:46;24.45;;;14.30;;
48524;SDS011;34316;51.514;-0.178;2022-11-24T06:41:49;29.38;;;15.73;;
48524;SDS011;34316;51.514;-0.178;2022-11-24T06:43:51;23.50;;;14.88;;
48524;SDS011;34316;51.514;-0.178;2022-11-24T06:45:52;27.52;;;15.02;;
48524;SDS011;34316;51.514;-0.178;2022-11-24T06:47:54;27.33;;;15.13;;
48524;SDS011;34316;51.514;-0.178;2022-11-24T06:49:56;29.85;;;14.25;;
48524;SDS011;34316;51.514;-0.178;2022-11-24T06:51:58;26.58;;;14.85;;
48524;SDS011;34316;51.514;-0.178;2022-11-24T06:54:00;29.65;;;15.05;;
48524;SDS011;34316;51.514;-0.178;2022-11-24T06:56:02;28.45;;;16.58;;
48524;SDS011;34316;51.514;-0.178;2022-11-24T06:58:04;27.47;;;17.47;;
48524;SDS011;34316;51.514;-0.178;2022-11-24T07:00:06;28.80;;;18.48;;
48524;SDS011;34316;51.514;-0.178;2022-11-24T07:02:09;34.28;;;21.10;;
48524;SDS011;34316;51.514;-0.178;2022-11-24T07:04:10;41.80;;;22.35;;
48524;SDS011;34316;51.514;-0.178;2022-11-24T07:06:13;37.05;;;21.13;;
48524;SDS011;34316;51.514;-0.178;2022-11-24T07:08:15;29.75;;;18.38;;
48524;SDS011;34316;51.514;-0.178;2022-11-24T07:10:18;29.30;;;17.63;;
48524;SDS011;34316;51.514;-0.178;2022-11-24T07:12:19;32.60;;;16.67;;
48524;SDS011;34316;51.514;-0.178;2022-11-24T07:14:21;23.35;;;15.48;;
48524;SDS011;34316;51.514;-0.178;2022-11-24T07:16:24;22.52;;;13.05;;
48524;SDS011;34316;51.514;-0.178;2022-11-24T07:18:26;22.10;;;12.55;;
48524;SDS011;34316;51.514;-0.178;2022-11-24T07:20:27;29.38;;;13.20;;
48524;SDS011;34316;51.514;-0.178;2022-11-24T07:22:29;23.65;;;12.88;;
48524;SDS011;34316;51.514;-0.178;2022-11-24T07:24:31;18.80;;;12.27;;
48524;SDS011;34316;51.514;-0.178;2022-11-24T07:26:33;19.02;;;11.27;;
48524;SDS011;34316;51.514;-0.178;2022-11-24T07:28:37;21.80;;;11.68;;
48524;SDS011;34316;51.514;-0.178;2022-11-24T07:30:39;19.35;;;11.27;;
48524;SDS011;34316;51.514;-0.178;2022-11-24T07:32:41;26.73;;;12.27;;
48524;SDS011;34316;51.514;-0.178;2022-11-24T07:34:42;18.25;;;12.38;;
48524;SDS011;34316;51.514;-0.178;2022-11-24T07:36:44;22.15;;;12.90;;
48524;SDS011;34316;51.514;-0.178;2022-11-24T07:38:45;25.35;;;15.00;;
48524;SDS011;34316;51.514;-0.178;2022-11-24T07:40:47;20.55;;;15.10;;
48524;SDS011;34316;51.514;-0.178;2022-11-24T07:42:49;22.30;;;15.52;;
48524;SDS011;34316;51.514;-0.178;2022-11-24T07:44:50;23.63;;;15.85;;
48524;SDS011;34316;51.514;-0.178;2022-11-24T07:46:52;21.05;;;15.30;;
48524;SDS011;34316;51.514;-0.178;2022-11-24T07:48:54;24.90;;;15.52;;
48524;SDS011;34316;51.514;-0.178;2022-11-24T07:50:59;17.90;;;12.95;;
48524;SDS011;34316;51.514;-0.178;2022-11-24T07:53:02;20.17;;;12.77;;
48524;SDS011;34316;51.514;-0.178;2022-11-24T07:55:04;17.02;;;12.18;;
48524;SDS011;34316;51.514;-0.178;2022-11-24T07:57:09;19.38;;;13.23;;
48524;SDS011;34316;51.514;-0.178;2022-11-24T07:59:11;21.05;;;13.32;;
48524;SDS011;34316;51.514;-0.178;2022-11-24T08:01:13;22.33;;;11.77;;
48524;SDS011;34316;51.514;-0.178;2022-11-24T08:03:16;18.05;;;12.43;;
48524;SDS011;34316;51.514;-0.178;2022-11-24T08:05:18;17.55;;;12.07;;
48524;SDS011;34316;51.514;-0.178;2022-11-24T08:07:20;17.10;;;11.50;;
48524;SDS011;34316;51.514;-0.178;2022-11-24T08:09:21;19.35;;;11.90;;
48524;SDS011;34316;51.514;-0.178;2022-11-24T08:11:23;19.27;;;11.30;;
48524;SDS011;34316;51.514;-0.178;2022-11-24T08:13:25;17.08;;;11.02;;
48524;SDS011;34316;51.514;-0.178;2022-11-24T08:15:27;16.27;;;11.82;;
48524;SDS011;34316;51.514;-0.178;2022-11-24T08:17:29;14.43;;;11.05;;
48524;SDS011;34316;51.514;-0.178;2022-11-24T08:19:30;25.63;;;11.55;;
48524;SDS011;34316;51.514;-0.178;2022-11-24T08:21:32;12.98;;;10.07;;
48524;SDS011;34316;51.514;-0.178;2022-11-24T08:23:34;14.57;;;10.75;;
48524;SDS011;34316;51.514;-0.178;2022-11-24T08:25:36;13.05;;;9.70;;
48524;SDS011;34316;51.514;-0.178;2022-11-24T08:27:37;12.90;;;9.65;;
48524;SDS011;34316;51.514;-0.178;2022-11-24T08:29:41;12.77;;;9.93;;
48524;SDS011;34316;51.514;-0.178;2022-11-24T08:31:43;16.23;;;9.75;;
48524;SDS011;34316;51.514;-0.178;2022-11-24T08:33:45;14.75;;;10.70;;
48524;SDS011;34316;51.514;-0.178;2022-11-24T08:35:47;14.63;;;9.68;;
48524;SDS011;34316;51.514;-0.178;2022-11-24T08:37:48;14.25;;;11.15;;
48524;SDS011;34316;51.514;-0.178;2022-11-24T08:39:50;12.02;;;8.07;;
48524;SDS011;34316;51.514;-0.178;2022-11-24T08:41:52;12.98;;;8.23;;
48524;SDS011;34316;51.514;-0.178;2022-11-24T08:43:54;9.80;;;7.22;;
48524;SDS011;34316;51.514;-0.178;2022-11-24T08:45:59;11.32;;;7.63;;
48524;SDS011;34316;51.514;-0.178;2022-11-24T08:48:02;10.15;;;7.10;;
48524;SDS011;34316;51.514;-0.178;2022-11-24T08:50:04;14.93;;;8.10;;
48524;SDS011;34316;51.514;-0.178;2022-11-24T08:52:06;9.45;;;6.43;;
48524;SDS011;34316;51.514;-0.178;2022-11-24T08:54:08;11.43;;;6.55;;
48524;SDS011;34316;51.514;-0.178;2022-11-24T08:56:10;11.57;;;6.10;;
48524;SDS011;34316;51.514;-0.178;2022-11-24T08:58:13;8.43;;;5.35;;
48524;SDS011;34316;51.514;-0.178;2022-11-24T09:00:15;8.18;;;4.90;;
48524;SDS011;34316;51.514;-0.178;2022-11-24T09:02:22;7.28;;;4.47;;
48524;SDS011;34316;51.514;-0.178;2022-11-24T09:04:24;9.30;;;4.40;;
48524;SDS011;34316;51.514;-0.178;2022-11-24T09:06:26;5.45;;;4.20;;
48524;SDS011;34316;51.514;-0.178;2022-11-24T09:08:31;9.13;;;4.68;;
48524;SDS011;34316;51.514;-0.178;2022-11-24T09:10:33;7.43;;;4.32;;
48524;SDS011;34316;51.514;-0.178;2022-11-24T09:12:36;6.07;;;3.75;;
48524;SDS011;34316;51.514;-0.178;2022-11-24T09:14:37;4.97;;;3.58;;
48524;SDS011;34316;51.514;-0.178;2022-11-24T09:16:39;7.03;;;4.60;;
48524;SDS011;34316;51.514;-0.178;2022-11-24T09:18:41;8.35;;;3.85;;
48524;SDS011;34316;51.514;-0.178;2022-11-24T09:20:42;6.18;;;3.63;;
48524;SDS011;34316;51.514;-0.178;2022-11-24T09:22:44;7.57;;;3.50;;
48524;SDS011;34316;51.514;-0.178;2022-11-24T09:24:47;5.72;;;3.20;;
48524;SDS011;34316;51.514;-0.178;2022-11-24T09:26:49;6.47;;;3.50;;
48524;SDS011;34316;51.514;-0.178;2022-11-24T09:28:51;6.13;;;2.72;;
48524;SDS011;34316;51.514;-0.178;2022-11-24T09:32:56;7.00;;;2.75;;
48524;SDS011;34316;51.514;-0.178;2022-11-24T09:34:58;3.67;;;2.28;;
48524;SDS011;34316;51.514;-0.178;2022-11-24T09:37:00;3.15;;;2.20;;
48524;SDS011;34316;51.514;-0.178;2022-11-24T09:39:02;4.97;;;1.70;;
48524;SDS011;34316;51.514;-0.178;2022-11-24T09:48:09;2.67;;;1.60;;
48524;SDS011;34316;51.514;-0.178;2022-11-24T09:50:18;7.53;;;1.88;;
48524;SDS011;34316;51.514;-0.178;2022-11-24T09:52:36;5.95;;;2.08;;
48524;SDS011;34316;51.514;-0.178;2022-11-24T09:56:54;5.35;;;2.80;;
48524;SDS011;34316;51.514;-0.178;2022-11-24T09:58:59;4.68;;;2.53;;
48524;SDS011;34316;51.514;-0.178;2022-11-24T10:01:04;4.60;;;2.20;;
48524;SDS011;34316;51.514;-0.178;2022-11-24T10:03:16;3.50;;;2.25;;
48524;SDS011;34316;51.514;-0.178;2022-11-24T10:05:21;5.70;;;1.60;;
48524;SDS011;34316;51.514;-0.178;2022-11-24T10:07:28;6.40;;;1.88;;
48524;SDS011;34316;51.514;-0.178;2022-11-24T10:19:09;3.20;;;2.20;;
48524;SDS011;34316;51.514;-0.178;2022-11-24T10:26:30;3.90;;;2.58;;
48524;SDS011;34316;51.514;-0.178;2022-11-24T10:28:41;6.40;;;3.10;;
48524;SDS011;34316;51.514;-0.178;2022-11-24T10:30:48;3.17;;;2.65;;
48524;SDS011;34316;51.514;-0.178;2022-11-24T10:33:07;5.85;;;2.80;;
48524;SDS011;34316;51.514;-0.178;2022-11-24T10:35:41;3.15;;;2.30;;
48524;SDS011;34316;51.514;-0.178;2022-11-24T10:41:04;4.00;;;2.67;;
48524;SDS011;34316;51.514;-0.178;2022-11-24T10:42:57;3.63;;;2.47;;
48524;SDS011;34316;51.514;-0.178;2022-11-24T10:45:00;3.80;;;2.78;;
48524;SDS011;34316;51.514;-0.178;2022-11-24T10:47:10;3.58;;;2.63;;
48524;SDS011;34316;51.514;-0.178;2022-11-24T10:49:18;5.40;;;3.43;;
48524;SDS011;34316;51.514;-0.178;2022-11-24T10:53:51;3.97;;;3.10;;
48524;SDS011;34316;51.514;-0.178;2022-11-24T10:56:01;5.28;;;3.35;;
48524;SDS011;34316;51.514;-0.178;2022-11-24T10:58:14;4.97;;;3.60;;
48524;SDS011;34316;51.514;-0.178;2022-11-24T11:04:31;4.63;;;3.13;;
48524;SDS011;34316;51.514;-0.178;2022-11-24T11:06:34;5.45;;;3.95;;
48524;SDS011;34316;51.514;-0.178;2022-11-24T11:08:38;6.60;;;3.88;;
48524;SDS011;34316;51.514;-0.178;2022-11-24T11:10:40;4.82;;;3.88;;
48524;SDS011;34316;51.514;-0.178;2022-11-24T11:12:43;5.75;;;4.30;;
48524;SDS011;34316;51.514;-0.178;2022-11-24T11:14:46;4.43;;;3.35;;
48524;SDS011;34316;51.514;-0.178;2022-11-24T11:16:52;4.70;;;3.88;;
48524;SDS011;34316;51.514;-0.178;2022-11-24T11:18:54;5.07;;;3.33;;
48524;SDS011;34316;51.514;-0.178;2022-11-24T11:20:57;7.05;;;4.60;;
48524;SDS011;34316;51.514;-0.178;2022-11-24T11:23:11;5.18;;;4.05;;
48524;SDS011;34316;51.514;-0.178;2022-11-24T11:25:19;7.18;;;4.43;;
48524;SDS011;34316;51.514;-0.178;2022-11-24T11:27:23;5.28;;;4.00;;
48524;SDS011;34316;51.514;-0.178;2022-11-24T11:29:26;6.97;;;4.70;;
48524;SDS011;34316;51.514;-0.178;2022-11-24T11:32:02;5.97;;;4.63;;
48524;SDS011;34316;51.514;-0.178;2022-11-24T11:34:25;6.85;;;5.00;;
48524;SDS011;34316;51.514;-0.178;2022-11-24T11:36:30;7.90;;;5.28;;
48524;SDS011;34316;51.514;-0.178;2022-11-24T11:38:34;7.20;;;4.78;;
48524;SDS011;34316;51.514;-0.178;2022-11-24T11:40:38;6.40;;;4.78;;
48524;SDS011;34316;51.514;-0.178;2022-11-24T11:42:57;7.22;;;5.70;;
48524;SDS011;34316;51.514;-0.178;2022-11-24T11:47:17;7.28;;;5.00;;
48524;SDS011;34316;51.514;-0.178;2022-11-24T11:49:22;7.57;;;5.18;;
48524;SDS011;34316;51.514;-0.178;2022-11-24T12:03:36;5.68;;;4.68;;
48524;SDS011;34316;51.514;-0.178;2022-11-24T12:08:20;6.68;;;4.20;;
48524;SDS011;34316;51.514;-0.178;2022-11-24T12:15:27;8.65;;;4.03;;
48524;SDS011;34316;51.514;-0.178;2022-11-24T12:24:49;4.95;;;3.80;;
48524;SDS011;34316;51.514;-0.178;2022-11-24T12:27:04;7.47;;;4.97;;
48524;SDS011;34316;51.514;-0.178;2022-11-24T12:31:29;6.15;;;4.55;;
48524;SDS011;34316;51.514;-0.178;2022-11-24T12:36:46;7.70;;;3.40;;
48524;SDS011;34316;51.514;-0.178;2022-11-24T12:41:20;4.82;;;3.75;;
48524;SDS011;34316;51.514;-0.178;2022-11-24T12:43:52;3.65;;;2.88;;
48524;SDS011;34316;51.514;-0.178;2022-11-24T12:45:58;6.40;;;3.92;;
48524;SDS011;34316;51.514;-0.178;2022-11-24T12:52:21;5.95;;;3.80;;
48524;SDS011;34316;51.514;-0.178;2022-11-24T12:54:26;6.13;;;3.97;;
48524;SDS011;34316;51.514;-0.178;2022-11-24T12:58:49;6.75;;;3.75;;
48524;SDS011;34316;51.514;-0.178;2022-11-24T13:07:57;5.93;;;4.27;;
48524;SDS011;34316;51.514;-0.178;2022-11-24T13:10:34;5.22;;;3.95;;
48524;SDS011;34316;51.514;-0.178;2022-11-24T13:12:58;6.70;;;4.05;;
48524;SDS011;34316;51.514;-0.178;2022-11-24T13:15:01;7.05;;;4.50;;
48524;SDS011;34316;51.514;-0.178;2022-11-24T13:17:35;5.87;;;3.87;;
48524;SDS011;34316;51.514;-0.178;2022-11-24T13:22:23;6.55;;;4.70;;
48524;SDS011;34316;51.514;-0.178;2022-11-24T13:24:30;9.43;;;5.38;;
48524;SDS011;34316;51.514;-0.178;2022-11-24T13:28:56;6.35;;;4.40;;
48524;SDS011;34316;51.514;-0.178;2022-11-24T13:31:20;6.43;;;3.83;;
48524;SDS011;34316;51.514;-0.178;2022-11-24T13:33:26;6.20;;;4.38;;
48524;SDS011;34316;51.514;-0.178;2022-11-24T13:35:32;5.05;;;3.55;;
48524;SDS011;34316;51.514;-0.178;2022-11-24T13:39:46;5.88;;;4.07;;
48524;SDS011;34316;51.514;-0.178;2022-11-24T13:46:17;6.18;;;4.07;;
48524;SDS011;34316;51.514;-0.178;2022-11-24T13:49:12;6.80;;;3.65;;
48524;SDS011;34316;51.514;-0.178;2022-11-24T13:51:16;4.70;;;3.75;;